Terminal Aerodrome Forecast
Issued by NWS Goodland, KS

Home | Current Version | Previous Version | Text Only | Print | Product List | Glossary Off
Versions: 1 2 3 4 5 6 7 8 9 10 11 12 13 14 15 16 17

000
FTUS43 KGLD 172331
TAFGLD
TAF
KGLD 172331Z 1800/1824 20010KT P6SM FEW120
     FM180200 19008KT P6SM SCT150
     FM180800 22006KT P6SM FEW150
     FM181200 27006KT P6SM FEW200
     FM181400 33009KT P6SM FEW200
     FM181700 36010KT P6SM SKC=

USA.gov is the U.S. government's official web portal to all federal, state and local government web resources and services.